Latest Weather Observations for Cape Wessel

IDD60801

Issued at 8:35 pm CST Tuesday 22 July 2014 (issued every 30 minutes, with the page automatically refreshed every 10 minutes)

About weather observations | Map of weather stations | Latest weather observations for NT | Other Formats
Station Details ID: 200786 Name: CAPE WESSEL Lat: -11.00 Lon: 136.76 Height: 18.0 m
Data from the previous 72 hours. | See also: Recent months for locations in Northern Territory
Date/Time
CST
Temp
°C
App
Temp
°C
Dew
Point
Rel
Hum
%
Delta-T
°C
Wind Press
QNH
hPa
Press
MSL
hPa
Rain
since 9 am
mm
Dir
 
Spd
km/h
Gust
km/h
Spd
kts
Gust
kts
22/08:30pm 24.5 20.3 17.2 63 4.5 ESE 35 44 19 24 1014.6 - 0.0
22/08:00pm 24.4 20.6 17.1 63 4.5 ESE 33 41 18 22 1014.2 - 0.0
22/07:30pm 24.4 20.2 17.1 63 4.5 ESE 35 43 19 23 1013.9 - 0.0
22/07:00pm 24.4 20.7 17.4 65 4.4 ESE 33 43 18 23 1013.5 - 0.0
22/06:30pm 24.5 20.6 17.0 63 4.6 ESE 33 43 18 23 1013.2 - 0.0
22/06:00pm 24.7 20.9 17.2 63 4.7 ESE 33 43 18 23 1013.1 1013.0 0.0
22/05:30pm 25.3 21.3 17.5 62 4.9 E 35 44 19 24 1012.8 - 0.0
22/05:00pm 25.8 21.5 17.7 61 5.1 ESE 37 44 20 24 1012.7 - 0.0
22/04:30pm 26.4 22.2 18.0 60 5.3 ESE 37 46 20 25 1012.5 - 0.0
22/04:00pm 27.1 23.3 18.9 61 5.3 ESE 37 46 20 25 1012.4 - 0.0
22/03:30pm 27.3 23.3 18.6 59 5.6 ESE 37 48 20 26 1012.4 - 0.0
22/03:00pm 27.6 24.2 18.9 59 5.6 ESE 35 43 19 23 1012.7 1012.6 0.0
22/02:30pm 27.7 23.4 18.7 58 5.8 ESE 39 46 21 25 1012.7 - 0.0
22/02:00pm 28.2 24.7 19.7 60 5.5 E 37 46 20 25 1013.0 - 0.0
22/01:30pm 28.1 25.0 19.6 60 5.5 E 35 44 19 24 1013.5 - 0.0
22/01:00pm 28.3 25.5 20.3 62 5.3 E 35 43 19 23 1013.9 - 0.0
22/12:30pm 28.3 25.7 20.6 63 5.1 ESE 35 43 19 23 1014.3 - 0.0
22/12:00pm 27.8 25.3 20.1 63 5.0 SE 33 44 18 24 1014.9 1014.8 0.0
22/11:30am 27.1 24.4 19.7 64 4.8 ESE 33 41 18 22 1015.4 - 0.0
22/11:00am 28.0 25.9 20.6 64 4.9 ESE 32 39 17 21 1015.8 - 0.0
22/10:30am 27.2 24.6 19.8 64 4.8 ESE 33 41 18 22 1016.1 - 0.0
22/10:00am 27.4 25.4 20.7 67 4.4 ESE 32 41 17 22 1016.3 - 0.0
22/09:30am 26.6 24.1 19.7 66 4.5 ESE 32 39 17 21 1016.3 - 0.0
22/09:00am 26.5 23.9 19.9 67 4.3 ESE 33 41 18 22 1016.3 - 0.0
22/08:30am 25.7 23.4 19.3 67 4.1 ESE 30 39 16 21 1016.2 - 0.0
22/08:00am 25.7 23.6 19.8 70 3.8 ESE 30 37 16 20 1016.1 - 0.0
22/07:30am 24.4 22.0 19.0 72 3.4 SE 30 35 16 19 1015.7 - 0.0
22/07:00am 24.1 21.9 18.7 72 3.4 ESE 28 35 15 19 1015.3 - 0.0
22/06:30am 24.1 21.8 18.5 71 3.5 ESE 28 37 15 20 1015.0 - 0.0
22/06:00am 24.1 21.7 18.3 70 3.7 ESE 28 35 15 19 1014.9 1014.8 0.0
22/05:30am 24.0 21.1 18.0 69 3.8 ESE 30 35 16 19 1014.9 - 0.0
22/05:00am 23.9 21.3 17.9 69 3.8 ESE 28 33 15 18 1014.9 - 0.0
22/04:30am 23.9 21.2 17.6 68 3.9 ESE 28 33 15 18 1014.9 - 0.0
22/04:00am 24.1 21.4 17.6 67 4.1 ESE 28 35 15 19 1015.1 - 0.0
22/03:30am 24.2 21.4 17.4 65 4.2 ESE 28 33 15 18 1015.1 - 0.0
22/03:00am 23.9 21.1 17.2 66 4.1 ESE 28 33 15 18 1015.0 1014.9 0.0
22/02:30am 23.9 20.6 16.9 65 4.3 ESE 30 37 16 20 1015.2 - 0.0
22/02:00am 24.0 20.7 17.0 65 4.3 ESE 30 37 16 20 1015.3 - 0.0
22/01:30am 24.1 20.6 17.4 66 4.2 SE 32 39 17 21 1015.1 - 0.0
22/01:00am 24.2 20.4 17.2 65 4.3 ESE 33 39 18 21 1015.2 - 0.0
22/12:00am 24.1 19.4 16.9 64 4.4 ESE 37 43 20 23 1015.1 1015.0 0.0
 
Date/Time
CST
Temp
°C
App
Temp
°C
Dew
Point
Rel
Hum
%
Delta-T
°C
Wind Press
QNH
hPa
Press
MSL
hPa
Rain
since 9 am
mm
Dir
 
Spd
km/h
Gust
km/h
Spd
kts
Gust
kts
21/11:30pm 24.3 20.4 17.8 67 4.1 SE 35 43 19 23 1015.2 - 0.0
21/11:00pm 24.0 20.5 17.5 67 4.0 SE 32 39 17 21 1015.3 - 0.0
21/10:30pm 24.1 20.7 17.6 67 4.1 SE 32 39 17 21 1015.4 - 0.0
21/10:00pm 24.2 20.6 17.7 67 4.1 ESE 33 41 18 22 1015.5 - 0.0
21/09:30pm 24.2 20.7 17.9 68 3.9 ESE 33 41 18 22 1015.5 - 0.0
21/09:00pm 24.2 21.1 18.4 70 3.7 SE 32 43 17 23 1015.3 1015.2 0.0
21/08:30pm 24.4 20.8 18.6 70 3.7 ESE 35 44 19 24 1015.1 - 0.0
21/08:00pm 24.4 21.2 18.6 70 3.7 ESE 33 43 18 23 1015.0 - 0.0
21/07:30pm 24.5 21.5 19.1 72 3.4 ESE 33 41 18 22 1014.8 - 0.0
21/07:00pm 24.4 21.3 18.8 71 3.6 ESE 33 41 18 22 1014.4 - 0.0
21/06:30pm 24.6 21.6 19.0 71 3.6 ESE 33 41 18 22 1014.1 - 0.0
21/06:00pm 24.9 21.9 19.0 69 3.8 ESE 33 44 18 24 1013.9 1013.8 0.0
21/05:30pm 25.5 22.3 19.4 69 3.9 ESE 35 43 19 23 1013.7 - 0.0
21/05:00pm 26.0 22.8 19.4 67 4.3 ESE 35 43 19 23 1013.4 - 0.0
21/04:30pm 26.5 23.5 19.9 67 4.3 ESE 35 41 19 22 1013.4 - 0.0
21/04:00pm 27.0 24.1 20.1 66 4.5 ESE 35 43 19 23 1013.3 - 0.0
21/03:30pm 27.5 24.3 20.3 65 4.7 ESE 37 46 20 25 1013.2 - 0.0
21/03:00pm 28.2 26.1 20.5 63 5.1 E 32 41 17 22 1013.1 1013.0 0.0
21/02:30pm 28.9 27.6 21.4 64 5.0 E 30 37 16 20 1013.3 - 0.0
21/02:00pm 26.8 24.1 19.7 65 4.6 E 33 39 18 21 1013.6 - 0.0
21/01:30pm 28.2 26.6 20.7 63 5.0 ESE 30 35 16 19 1013.8 - 0.0
21/01:00pm 29.3 27.6 20.5 59 5.8 ESE 30 39 16 21 1014.1 - 0.0
21/12:30pm 28.8 26.3 19.7 58 5.9 ESE 32 39 17 21 1014.3 - 0.0
21/12:00pm 28.8 27.0 20.3 60 5.6 ESE 30 39 16 21 1014.7 1014.6 0.0
21/11:30am 28.6 27.0 20.1 60 5.6 ESE 28 39 15 21 1015.0 - 0.0
21/11:00am 28.0 25.5 19.8 61 5.3 ESE 32 39 17 21 1015.4 - 0.0
21/10:30am 27.9 26.2 20.5 64 4.9 ESE 30 37 16 20 1015.7 - 0.0
21/10:00am 27.9 26.5 20.5 64 4.9 SE 28 33 15 18 1015.8 - 0.0
21/09:30am 27.0 24.8 19.6 64 4.8 ESE 30 37 16 20 1015.9 - 0.0
21/09:00am 26.9 25.5 20.5 68 4.2 ESE 28 35 15 19 1015.8 1015.7 0.2
21/08:30am 25.8 23.7 19.7 69 3.9 ESE 30 37 16 20 1015.7 - 0.2
21/08:00am 25.4 23.3 19.8 71 3.6 ESE 30 37 16 20 1015.4 - 0.2
21/07:30am 24.5 22.1 19.1 72 3.4 ESE 30 37 16 20 1015.1 - 0.2
21/07:00am 24.0 21.5 18.9 73 3.2 ESE 30 35 16 19 1014.8 - 0.2
21/06:30am 23.9 21.8 19.0 74 3.1 ESE 28 35 15 19 1014.5 - 0.2
21/06:00am 23.7 21.8 18.6 73 3.2 SE 26 35 14 19 1014.2 1014.1 0.2
21/05:30am 23.7 21.4 18.4 72 3.3 SE 28 33 15 18 1014.1 - 0.2
21/05:00am 23.8 21.8 18.2 71 3.5 SE 26 33 14 18 1014.3 - 0.2
21/04:30am 24.0 21.7 18.4 71 3.5 ESE 28 33 15 18 1014.3 - 0.2
21/04:00am 23.9 21.4 18.1 70 3.6 ESE 28 33 15 18 1014.3 - 0.2
21/03:30am 24.0 21.7 18.4 71 3.5 SE 28 33 15 18 1014.4 - 0.2
21/03:00am 24.0 22.0 18.4 71 3.5 ESE 26 32 14 17 1014.5 1014.4 0.2
21/02:30am 24.0 21.6 18.2 70 3.6 ESE 28 35 15 19 1014.6 - 0.2
21/02:00am 24.2 21.5 18.4 70 3.7 ESE 30 35 16 19 1014.7 - 0.2
21/01:30am 24.2 21.2 18.6 71 3.5 ESE 32 39 17 21 1014.8 - 0.2
21/01:00am 24.3 21.9 19.1 73 3.3 ESE 30 37 16 20 1015.1 - 0.2
21/12:30am 24.2 21.4 19.1 73 3.3 ESE 32 39 17 21 1015.2 - 0.2
21/12:00am 24.3 21.5 19.1 73 3.3 ESE 32 39 17 21 1015.3 1015.2 0.2
 
Date/Time
CST
Temp
°C
App
Temp
°C
Dew
Point
Rel
Hum
%
Delta-T
°C
Wind Press
QNH
hPa
Press
MSL
hPa
Rain
since 9 am
mm
Dir
 
Spd
km/h
Gust
km/h
Spd
kts
Gust
kts
20/11:30pm 24.6 22.2 19.9 75 3.0 ESE 32 39 17 21 1015.4 - 0.2
20/11:00pm 24.4 22.0 19.2 73 3.3 ESE 30 37 16 20 1015.4 - 0.2
20/10:30pm 24.4 22.0 19.2 73 3.3 ESE 30 39 16 21 1015.6 - 0.2
20/10:00pm 24.6 22.0 19.4 73 3.3 ESE 32 39 17 21 1015.7 - 0.2
20/09:30pm 24.5 21.9 19.6 74 3.2 ESE 32 41 17 22 1015.6 - 0.2
20/09:00pm 24.5 22.3 19.6 74 3.2 ESE 30 35 16 19 1015.4 1015.3 0.2
20/08:30pm 24.6 22.5 19.7 74 3.2 ESE 30 35 16 19 1015.1 - 0.2
20/08:00pm 24.8 22.7 19.8 74 3.2 ESE 30 35 16 19 1014.9 - 0.2
20/07:30pm 24.9 23.0 20.2 75 3.1 ESE 30 39 16 21 1014.5 - 0.2
20/07:00pm 24.7 22.7 20.0 75 3.0 ESE 30 35 16 19 1014.1 - 0.2
20/06:30pm 24.8 22.6 19.6 73 3.3 ESE 30 35 16 19 1013.7 - 0.2
20/06:00pm 25.1 23.1 19.9 73 3.4 ESE 30 35 16 19 1013.5 1013.4 0.2
20/05:30pm 25.4 23.7 19.8 71 3.6 ESE 28 33 15 18 1013.2 - 0.2
20/05:00pm 26.3 24.8 20.2 69 4.0 ESE 28 33 15 18 1013.1 - 0.2
20/04:30pm 26.9 25.6 20.7 69 4.1 ESE 28 35 15 19 1013.0 - 0.2
20/04:00pm 26.4 24.9 20.3 69 4.0 ESE 28 32 15 17 1012.9 - 0.2
20/03:30pm 26.8 25.1 19.9 66 4.5 ESE 28 35 15 19 1012.8 - 0.2
20/03:00pm 28.1 28.2 21.9 69 4.2 ESE 24 30 13 16 1012.7 - 0.2
20/02:30pm 26.8 27.2 22.4 77 3.0 ESE 24 32 13 17 1012.9 - 0.2
20/02:00pm 28.2 28.0 20.5 63 5.1 ESE 22 26 12 14 1013.2 - 0.2
20/01:30pm 29.0 29.4 21.7 64 4.9 ESE 22 28 12 15 1013.5 - 0.0
20/01:00pm 26.9 25.7 20.0 66 4.5 SE 26 32 14 17 1014.0 - 0.0
20/12:30pm 29.3 28.6 21.0 61 5.5 SE 26 33 14 18 1014.2 - 0.0
20/12:00pm 29.1 28.8 21.1 62 5.3 SE 24 32 13 17 1014.7 1014.6 0.0
20/11:30am 29.1 28.9 21.3 62 5.2 SE 24 30 13 16 1014.9 - 0.0
20/11:00am 28.7 28.3 21.0 63 5.1 ESE 24 32 13 17 1015.3 - 0.0
20/10:30am 28.1 27.2 20.6 63 5.0 SE 26 30 14 16 1015.7 - 0.0
20/10:00am 27.8 27.1 21.1 67 4.4 ESE 26 32 14 17 1015.7 - 0.0
20/09:30am 27.6 27.2 20.9 67 4.4 ESE 24 30 13 16 1015.7 - 0.0
20/09:00am 26.4 25.0 20.5 70 3.9 ESE 28 33 15 18 1015.8 1015.7 1.4
20/08:30am 25.9 25.3 20.5 72 3.5 ESE 24 32 13 17 1015.6 - 1.4
20/08:00am 25.6 25.0 20.6 74 3.3 ESE 24 30 13 16 1015.2 - 1.4
20/07:30am 24.7 23.7 20.4 77 2.8 ESE 26 33 14 18 1014.9 - 1.4
20/07:00am 24.2 22.7 20.3 79 2.5 ESE 28 35 15 19 1014.7 - 1.4
20/06:30am 24.0 23.4 20.5 81 2.3 ESE 24 32 13 17 1014.5 - 1.4
20/06:00am 23.9 22.9 20.4 81 2.3 ESE 26 32 14 17 1014.3 1014.2 1.4
20/05:30am 24.0 22.7 19.9 78 2.6 ESE 26 32 14 17 1014.1 - 1.4
20/05:00am 24.1 22.8 19.8 77 2.8 ESE 26 32 14 17 1013.9 - 1.4
20/04:30am 23.8 22.2 19.1 75 3.0 ESE 26 33 14 18 1013.7 - 1.4
20/04:00am 24.0 22.3 19.9 78 2.6 ESE 28 35 15 19 1013.5 - 1.4
20/03:30am 23.9 21.8 19.8 78 2.6 ESE 30 35 16 19 1013.4 - 1.4
20/03:00am 23.9 22.3 20.0 79 2.5 ESE 28 35 15 19 1013.4 1013.3 1.4
20/02:30am 23.8 22.1 19.9 79 2.5 ESE 28 35 15 19 1013.5 - 1.4
20/02:00am 23.8 21.9 20.1 80 2.4 ESE 30 35 16 19 1013.6 - 1.4
20/01:30am 24.1 22.1 20.0 78 2.7 ESE 30 39 16 21 1014.0 - 1.4
20/01:00am 24.2 22.0 20.3 79 2.5 ESE 32 37 17 20 1014.1 - 1.4
20/12:30am 24.2 22.6 20.7 81 2.3 ESE 30 35 16 19 1014.2 - 1.4
20/12:00am 24.3 22.6 20.6 80 2.4 ESE 30 35 16 19 1014.4 1014.3 1.4
 
Date/Time
CST
Temp
°C
App
Temp
°C
Dew
Point
Rel
Hum
%
Delta-T
°C
Wind Press
QNH
hPa
Press
MSL
hPa
Rain
since 9 am
mm
Dir
 
Spd
km/h
Gust
km/h
Spd
kts
Gust
kts
19/11:30pm 24.4 23.0 21.1 82 2.2 ESE 30 35 16 19 1014.3 - 1.4
19/11:00pm 24.5 23.0 21.0 81 2.3 ESE 30 37 16 20 1014.4 - 1.4
19/10:30pm 24.4 23.0 21.1 82 2.2 ESE 30 37 16 20 1014.5 - 1.4
19/10:00pm 24.5 22.6 21.0 81 2.3 ESE 32 37 17 20 1014.7 - 1.4
19/09:30pm 24.5 23.2 21.4 83 2.0 ESE 30 37 16 20 1014.8 - 1.4
19/09:00pm 24.5 23.2 21.4 83 2.0 ESE 30 35 16 19 1014.6 1014.5 1.4

Other Formats:

Comma delimited format used in spreadsheet applications
http://www.bom.gov.au/fwo/IDD60801/IDD60801.94147.axf

JavaScript Object Notation format (JSON) in row-major order
http://www.bom.gov.au/fwo/IDD60801/IDD60801.94147.json